createdAt,value
2023-01-26T00:00:42.941Z,16.88
2023-01-26T00:03:44.043Z,17.38
2023-01-26T00:06:45.226Z,15.02
2023-01-26T00:09:46.285Z,15.10
2023-01-26T00:12:47.600Z,13.52
2023-01-26T00:15:49.456Z,14.07
2023-01-26T00:18:50.588Z,15.30
2023-01-26T00:21:51.490Z,13.88
2023-01-26T00:24:53.072Z,14.93
2023-01-26T00:27:54.129Z,15.25
2023-01-26T00:31:06.120Z,14.73
2023-01-26T00:34:07.241Z,14.52
2023-01-26T00:37:08.412Z,15.38
2023-01-26T00:40:11.341Z,16.75
2023-01-26T00:43:12.527Z,15.75
2023-01-26T00:46:13.290Z,16.48
2023-01-26T00:49:14.067Z,14.93
2023-01-26T00:52:15.165Z,14.90
2023-01-26T00:55:16.096Z,14.48
2023-01-26T00:58:17.251Z,15.32
2023-01-26T01:01:17.931Z,14.93
2023-01-26T01:04:19.297Z,15.50
2023-01-26T01:07:20.532Z,16.70
2023-01-26T01:10:21.771Z,16.77
2023-01-26T01:13:22.515Z,18.48
2023-01-26T01:16:24.204Z,16.95
2023-01-26T01:19:26.041Z,18.25
2023-01-26T01:22:27.211Z,17.02
2023-01-26T01:25:28.665Z,17.20
2023-01-26T01:28:29.445Z,16.70
2023-01-26T01:31:31.149Z,19.00
2023-01-26T01:34:32.333Z,17.33
2023-01-26T01:37:33.898Z,18.63
2023-01-26T01:40:34.880Z,18.85
2023-01-26T01:43:37.209Z,18.75
2023-01-26T01:46:44.231Z,17.58
2023-01-26T01:52:56.356Z,17.45
2023-01-26T01:56:07.742Z,18.45
2023-01-26T01:59:12.329Z,18.08
2023-01-26T02:02:14.795Z,18.85
2023-01-26T02:06:06.528Z,18.58
2023-01-26T02:09:29.375Z,18.42
2023-01-26T02:12:33.795Z,19.15
2023-01-26T02:15:35.265Z,17.23
2023-01-26T02:18:36.807Z,20.20
2023-01-26T02:21:39.378Z,17.92
2023-01-26T02:24:41.520Z,19.77
2023-01-26T02:27:43.205Z,18.00
2023-01-26T02:30:44.864Z,18.63
2023-01-26T02:33:46.581Z,18.23
2023-01-26T02:37:01.037Z,19.08
2023-01-26T02:40:16.414Z,18.42
2023-01-26T02:43:17.969Z,19.08
2023-01-26T02:46:18.954Z,19.58
2023-01-26T02:49:39.104Z,16.05
2023-01-26T02:52:40.274Z,16.08
2023-01-26T02:55:52.282Z,18.70
2023-01-26T02:58:53.304Z,17.42
2023-01-26T03:01:57.760Z,17.63
2023-01-26T03:04:59.075Z,20.33
2023-01-26T03:08:01.329Z,17.67
2023-01-26T03:11:09.522Z,17.25
2023-01-26T03:14:15.692Z,16.15
2023-01-26T03:17:16.784Z,17.95
2023-01-26T03:20:36.712Z,17.17
2023-01-26T03:23:56.382Z,14.88
2023-01-26T03:27:18.264Z,14.57
2023-01-26T03:30:20.250Z,14.82
2023-01-26T03:33:23.713Z,14.63
2023-01-26T03:36:25.908Z,14.23
2023-01-26T03:39:45.942Z,15.25
2023-01-26T03:43:05.774Z,17.75
2023-01-26T03:46:26.810Z,16.92
2023-01-26T03:49:47.116Z,16.08
2023-01-26T03:53:06.634Z,15.18
2023-01-26T03:56:35.315Z,16.45
2023-01-26T03:59:44.507Z,17.35
2023-01-26T04:03:09.149Z,15.27
2023-01-26T04:06:28.730Z,19.10
2023-01-26T04:09:30.494Z,16.92
2023-01-26T04:12:32.397Z,15.57
2023-01-26T04:16:09.452Z,17.67
2023-01-26T04:19:29.548Z,15.40
2023-01-26T04:22:31.805Z,18.38
2023-01-26T04:25:32.785Z,16.33
2023-01-26T04:28:33.709Z,18.30
2023-01-26T04:31:35.575Z,17.08
2023-01-26T04:34:36.792Z,18.02
2023-01-26T04:37:45.105Z,19.17
2023-01-26T04:40:53.809Z,18.05
2023-01-26T04:43:55.487Z,17.88
2023-01-26T04:46:58.306Z,20.30
2023-01-26T04:49:59.797Z,18.60
2023-01-26T04:53:01.332Z,18.75
2023-01-26T04:56:02.831Z,19.08
2023-01-26T04:59:08.308Z,18.23
2023-01-26T05:02:11.461Z,15.43
2023-01-26T05:05:13.312Z,18.25
2023-01-26T05:08:14.515Z,17.85
2023-01-26T05:11:16.422Z,18.55
2023-01-26T05:14:29.031Z,17.17
2023-01-26T05:17:38.384Z,18.30
2023-01-26T05:20:58.320Z,17.00
2023-01-26T05:24:01.359Z,18.23
2023-01-26T05:27:21.569Z,18.10
2023-01-26T05:30:28.622Z,18.60
2023-01-26T05:33:29.812Z,19.35
2023-01-26T05:36:31.880Z,18.38
2023-01-26T05:39:33.001Z,16.92
2023-01-26T05:42:34.861Z,18.55
2023-01-26T05:45:48.685Z,17.77
2023-01-26T05:48:50.485Z,19.17
2023-01-26T05:51:51.961Z,18.08
2023-01-26T05:54:53.762Z,18.60
2023-01-26T05:57:55.099Z,19.02
2023-01-26T06:00:56.471Z,18.40
2023-01-26T06:04:03.483Z,18.08
2023-01-26T06:07:13.752Z,18.50
2023-01-26T06:10:24.701Z,17.42
2023-01-26T06:13:39.645Z,18.83
2023-01-26T06:16:52.651Z,17.45
2023-01-26T06:19:53.620Z,18.88
2023-01-26T06:22:54.822Z,20.45
2023-01-26T06:26:00.590Z,19.20
2023-01-26T06:29:02.673Z,18.13
2023-01-26T06:32:06.930Z,18.83
2023-01-26T06:35:08.929Z,17.55
2023-01-26T06:38:10.392Z,18.35
2023-01-26T06:41:11.198Z,17.65
2023-01-26T06:44:12.399Z,19.02
2023-01-26T06:47:14.070Z,17.33
2023-01-26T06:50:20.099Z,19.98
2023-01-26T06:53:38.497Z,17.13
2023-01-26T06:57:00.963Z,16.80
2023-01-26T07:00:21.243Z,16.30
2023-01-26T07:03:32.383Z,16.88
2023-01-26T07:06:33.627Z,17.13
2023-01-26T07:09:34.430Z,16.90
2023-01-26T07:12:46.467Z,16.95
2023-01-26T07:15:47.275Z,17.70
2023-01-26T07:18:48.211Z,17.83
2023-01-26T07:21:49.766Z,17.05
2023-01-26T07:24:50.882Z,17.10
2023-01-26T07:27:59.331Z,16.48
2023-01-26T07:31:06.592Z,16.60
2023-01-26T07:34:07.674Z,17.08
2023-01-26T07:37:08.302Z,16.85
2023-01-26T07:40:10.640Z,17.08
2023-01-26T07:43:12.254Z,17.58
2023-01-26T07:46:24.776Z,16.90
2023-01-26T07:49:25.967Z,18.75
2023-01-26T07:52:27.052Z,16.83
2023-01-26T07:55:27.993Z,16.05
2023-01-26T07:58:29.068Z,16.10
2023-01-26T08:01:30.037Z,17.90
2023-01-26T08:04:31.165Z,17.40
2023-01-26T08:07:32.306Z,16.45
2023-01-26T08:10:33.209Z,16.70
2023-01-26T08:13:36.193Z,16.15
2023-01-26T08:16:37.255Z,17.13
2023-01-26T08:19:38.373Z,15.95
2023-01-26T08:22:39.053Z,16.23
2023-01-26T08:25:39.867Z,16.33
2023-01-26T08:28:41.834Z,15.88
2023-01-26T08:31:42.857Z,15.60
2023-01-26T08:34:43.499Z,14.85
2023-01-26T08:37:44.220Z,15.90
2023-01-26T08:40:51.753Z,16.52
2023-01-26T08:43:53.204Z,15.77
2023-01-26T08:46:53.884Z,14.73
2023-01-26T08:49:54.612Z,15.88
2023-01-26T08:52:57.052Z,15.30
2023-01-26T08:55:58.233Z,14.32
2023-01-26T08:58:59.329Z,12.65
2023-01-26T09:02:00.259Z,14.52
2023-01-26T09:05:01.525Z,14.10
2023-01-26T09:08:04.863Z,14.88
2023-01-26T09:11:07.605Z,14.25
2023-01-26T09:14:08.481Z,13.77
2023-01-26T09:17:09.223Z,14.25
2023-01-26T09:20:12.298Z,14.40
2023-01-26T09:23:13.593Z,13.85
2023-01-26T09:26:14.481Z,12.50
2023-01-26T09:29:16.764Z,13.75
2023-01-26T09:32:18.266Z,13.82
2023-01-26T09:35:19.588Z,11.52
2023-01-26T09:38:20.603Z,11.93
2023-01-26T09:41:52.125Z,14.25
2023-01-26T09:45:23.083Z,12.02
2023-01-26T09:48:37.828Z,12.40
2023-01-26T09:51:47.575Z,12.73
2023-01-26T09:54:52.828Z,11.70
2023-01-26T09:58:15.350Z,14.05
2023-01-26T10:01:43.700Z,12.00
2023-01-26T10:04:51.105Z,11.95
2023-01-26T10:07:52.021Z,11.02
2023-01-26T10:11:07.805Z,11.98
2023-01-26T10:14:36.243Z,12.02
2023-01-26T10:17:44.384Z,11.07
2023-01-26T10:20:54.669Z,11.43
2023-01-26T10:23:59.570Z,11.48
2023-01-26T10:27:00.924Z,12.52
2023-01-26T10:30:01.821Z,10.98
2023-01-26T10:33:03.140Z,10.30
2023-01-26T10:36:07.669Z,9.52
2023-01-26T10:39:15.431Z,9.70
2023-01-26T10:42:19.672Z,10.65
2023-01-26T10:45:34.093Z,11.38
2023-01-26T10:48:35.543Z,9.00
2023-01-26T10:51:40.728Z,10.35
2023-01-26T10:54:44.050Z,10.65
2023-01-26T10:57:45.062Z,11.38
2023-01-26T11:00:56.832Z,11.02
2023-01-26T11:04:12.335Z,9.95
2023-01-26T11:07:32.033Z,10.90
2023-01-26T11:10:35.137Z,10.70
2023-01-26T11:14:33.155Z,10.60
2023-01-26T11:18:00.870Z,10.80
2023-01-26T11:21:17.440Z,11.50
2023-01-26T11:24:33.782Z,10.60
2023-01-26T11:27:46.217Z,11.83
2023-01-26T11:31:00.255Z,10.70
2023-01-26T11:34:33.202Z,10.23
2023-01-26T11:38:01.103Z,10.57
2023-01-26T11:41:14.041Z,9.98
2023-01-26T11:44:35.448Z,10.27
2023-01-26T11:47:45.101Z,10.07
2023-01-26T11:50:50.601Z,10.02
2023-01-26T11:54:09.561Z,11.15
2023-01-26T11:57:30.120Z,10.23
2023-01-26T12:00:50.099Z,10.77
2023-01-26T12:03:51.707Z,10.00
2023-01-26T12:07:01.586Z,10.20
2023-01-26T12:10:05.268Z,9.50
2023-01-26T12:13:18.863Z,10.02
2023-01-26T12:16:30.287Z,9.85
2023-01-26T12:19:53.167Z,10.27
2023-01-26T12:23:08.996Z,9.15
2023-01-26T12:26:16.943Z,10.50
2023-01-26T12:29:37.275Z,10.05
2023-01-26T12:32:38.532Z,9.65
2023-01-26T12:36:25.591Z,9.55
2023-01-26T12:40:01.432Z,10.70
2023-01-26T12:43:50.792Z,10.15
2023-01-26T12:46:56.735Z,10.85
2023-01-26T12:50:16.249Z,9.82
2023-01-26T12:53:31.708Z,10.63
2023-01-26T12:56:42.321Z,9.52
2023-01-26T12:59:48.148Z,9.32
2023-01-26T13:02:55.876Z,10.93
2023-01-26T13:06:00.558Z,10.10
2023-01-26T13:09:06.065Z,9.82
2023-01-26T13:12:45.585Z,9.85
2023-01-26T13:15:46.566Z,8.85
2023-01-26T13:18:58.589Z,10.25
2023-01-26T13:21:59.381Z,9.18
2023-01-26T13:25:31.376Z,10.00
2023-01-26T13:28:32.458Z,10.38
2023-01-26T13:31:34.550Z,9.48
2023-01-26T13:34:49.799Z,10.02
2023-01-26T13:37:53.534Z,9.82
2023-01-26T13:40:55.147Z,9.60
2023-01-26T13:44:07.847Z,11.55
2023-01-26T13:47:20.571Z,12.50
2023-01-26T13:50:33.689Z,9.82
2023-01-26T13:53:41.654Z,11.18
2023-01-26T13:56:59.054Z,11.35
2023-01-26T14:03:01.993Z,9.35
2023-01-26T14:06:11.589Z,11.45
2023-01-26T14:09:15.692Z,10.93
2023-01-26T14:12:23.913Z,12.43
2023-01-26T14:15:30.644Z,11.52
2023-01-26T14:18:31.776Z,9.25
2023-01-26T14:21:33.367Z,11.57
2023-01-26T14:24:39.708Z,10.38
2023-01-26T14:27:42.609Z,11.23
2023-01-26T14:30:43.992Z,11.52
2023-01-26T14:33:45.117Z,11.68
2023-01-26T14:36:45.580Z,10.70
2023-01-26T14:39:48.221Z,11.13
2023-01-26T14:42:52.488Z,11.30
2023-01-26T14:46:08.110Z,12.15
2023-01-26T14:49:16.426Z,11.23
2023-01-26T14:52:33.966Z,11.88
2023-01-26T14:55:36.619Z,12.48
2023-01-26T14:58:37.269Z,12.05
2023-01-26T15:01:38.391Z,12.02
2023-01-26T15:04:40.539Z,12.55
2023-01-26T15:07:41.278Z,12.80
2023-01-26T15:10:52.816Z,11.80
2023-01-26T15:13:55.613Z,11.52
2023-01-26T15:16:56.375Z,11.60
2023-01-26T15:19:57.361Z,11.95
2023-01-26T15:22:58.319Z,12.60
2023-01-26T15:26:23.240Z,11.88
2023-01-26T15:29:25.452Z,12.07
2023-01-26T15:32:32.603Z,10.68
2023-01-26T15:35:34.959Z,11.90
2023-01-26T15:38:35.980Z,11.10
2023-01-26T15:41:36.704Z,10.38
2023-01-26T15:44:37.331Z,10.10
2023-01-26T15:47:38.159Z,9.85
2023-01-26T15:50:39.299Z,10.85
2023-01-26T15:53:41.156Z,10.00
2023-01-26T15:56:41.953Z,10.90
2023-01-26T15:59:42.799Z,10.32
2023-01-26T16:02:44.640Z,9.60
2023-01-26T16:05:49.443Z,11.60
2023-01-26T16:08:50.507Z,10.88
2023-01-26T16:11:52.846Z,10.05
2023-01-26T16:14:53.416Z,10.73
2023-01-26T16:17:54.385Z,10.43
2023-01-26T16:20:55.594Z,10.88
2023-01-26T16:23:56.560Z,11.38
2023-01-26T16:26:57.376Z,10.88
2023-01-26T16:29:58.327Z,12.00
2023-01-26T16:32:59.118Z,11.10
2023-01-26T16:36:00.022Z,10.38
2023-01-26T16:39:01.111Z,10.57
2023-01-26T16:42:01.971Z,11.20
2023-01-26T16:45:03.010Z,11.43
2023-01-26T16:48:11.160Z,12.45
2023-01-26T16:51:36.040Z,11.07
2023-01-26T16:54:37.126Z,11.13
2023-01-26T16:57:37.652Z,11.48
2023-01-26T17:00:38.549Z,11.82
2023-01-26T17:03:39.648Z,11.65
2023-01-26T17:06:40.544Z,11.50
2023-01-26T17:09:41.374Z,12.43
2023-01-26T17:12:42.505Z,11.27
2023-01-26T17:15:43.586Z,11.98
2023-01-26T17:18:47.809Z,10.63
2023-01-26T17:21:48.551Z,12.65
2023-01-26T17:24:49.954Z,12.50
2023-01-26T17:27:50.778Z,12.88
2023-01-26T17:30:51.397Z,11.10
2023-01-26T17:33:52.711Z,11.45
2023-01-26T17:36:54.756Z,10.02
2023-01-26T17:39:57.102Z,11.82
2023-01-26T17:42:57.867Z,10.95
2023-01-26T17:46:03.347Z,12.07
2023-01-26T17:49:04.369Z,9.63
2023-01-26T17:52:05.983Z,11.10
2023-01-26T17:55:07.500Z,10.82
2023-01-26T17:58:11.107Z,10.10
2023-01-26T18:01:12.133Z,9.25
2023-01-26T18:04:12.891Z,11.43
2023-01-26T18:07:14.034Z,10.15
2023-01-26T18:10:14.975Z,9.20
2023-01-26T18:13:16.052Z,11.30
2023-01-26T18:16:19.428Z,9.65
2023-01-26T18:19:20.375Z,9.43
2023-01-26T18:22:21.514Z,11.10
2023-01-26T18:25:22.691Z,9.65
2023-01-26T18:28:23.616Z,10.05
2023-01-26T18:31:30.320Z,8.27
2023-01-26T18:34:31.219Z,7.10
2023-01-26T18:37:33.775Z,9.38
2023-01-26T18:40:35.325Z,9.85
2023-01-26T18:43:36.207Z,9.63
2023-01-26T18:46:37.856Z,9.57
2023-01-26T18:49:38.630Z,10.13
2023-01-26T18:52:39.661Z,9.38
2023-01-26T18:55:40.309Z,10.10
2023-01-26T18:58:41.593Z,10.40
2023-01-26T19:01:43.852Z,9.52
2023-01-26T19:04:44.592Z,8.30
2023-01-26T19:07:45.407Z,9.38
2023-01-26T19:10:46.342Z,9.80
2023-01-26T19:13:48.906Z,10.27
2023-01-26T19:16:49.888Z,9.95
2023-01-26T19:19:50.899Z,9.48
2023-01-26T19:22:55.615Z,9.55
2023-01-26T19:25:56.646Z,10.27
2023-01-26T19:28:58.349Z,10.27
2023-01-26T19:31:59.271Z,9.50
2023-01-26T19:35:00.272Z,9.27
2023-01-26T19:38:01.099Z,10.23
2023-01-26T19:41:02.516Z,9.98
2023-01-26T19:44:03.385Z,10.45
2023-01-26T19:47:04.245Z,11.30
2023-01-26T19:50:05.580Z,11.07
2023-01-26T19:53:07.731Z,10.25
2023-01-26T19:56:20.431Z,8.60
2023-01-26T19:59:22.585Z,9.35
2023-01-26T20:02:23.673Z,9.38
2023-01-26T20:05:24.363Z,8.82
2023-01-26T20:08:26.533Z,10.38
2023-01-26T20:11:29.753Z,8.88
2023-01-26T20:14:30.440Z,8.85
2023-01-26T20:17:31.414Z,9.32
2023-01-26T20:20:32.018Z,9.00
2023-01-26T20:23:33.882Z,9.95
2023-01-26T20:26:35.595Z,8.77
2023-01-26T20:29:36.977Z,10.30
2023-01-26T20:32:38.781Z,9.02
2023-01-26T20:35:40.612Z,9.70
2023-01-26T20:38:41.682Z,10.60
2023-01-26T20:41:42.719Z,9.50
2023-01-26T20:44:43.612Z,9.27
2023-01-26T20:47:44.809Z,9.20
2023-01-26T20:50:45.624Z,9.25
2023-01-26T20:53:48.358Z,8.95
2023-01-26T20:56:51.494Z,9.15
2023-01-26T20:59:52.547Z,9.05
2023-01-26T21:02:53.115Z,7.85
2023-01-26T21:05:54.334Z,7.40
2023-01-26T21:08:57.966Z,8.18
2023-01-26T21:11:58.680Z,8.55
2023-01-26T21:14:59.759Z,6.40
2023-01-26T21:18:00.610Z,7.32
2023-01-26T21:21:04.166Z,6.85
2023-01-26T21:24:05.187Z,7.03
2023-01-26T21:27:06.911Z,9.15
2023-01-26T21:30:08.251Z,6.85
2023-01-26T21:33:09.026Z,6.78
2023-01-26T21:36:13.442Z,6.88
2023-01-26T21:39:15.134Z,5.75
2023-01-26T21:42:16.148Z,6.18
2023-01-26T21:45:35.303Z,6.72
2023-01-26T21:48:36.230Z,7.55
2023-01-26T21:51:55.953Z,7.30
2023-01-26T21:54:59.116Z,6.60
2023-01-26T21:58:18.458Z,7.20
2023-01-26T22:01:19.470Z,6.55
2023-01-26T22:04:24.368Z,6.85
2023-01-26T22:07:28.170Z,7.38
2023-01-26T22:10:28.903Z,6.63
2023-01-26T22:13:29.910Z,7.88
2023-01-26T22:16:30.951Z,6.25
2023-01-26T22:19:31.748Z,7.30
2023-01-26T22:22:32.765Z,6.43
2023-01-26T22:25:40.908Z,7.45
2023-01-26T22:28:44.351Z,6.85
2023-01-26T22:31:45.492Z,6.97
2023-01-26T22:34:46.244Z,7.85
2023-01-26T22:37:47.383Z,7.53
2023-01-26T22:40:48.236Z,8.35
2023-01-26T22:43:55.329Z,8.02
2023-01-26T22:46:56.259Z,7.70
2023-01-26T22:49:56.876Z,7.88
2023-01-26T22:52:58.059Z,7.57
2023-01-26T22:55:58.464Z,7.85
2023-01-26T22:59:00.755Z,8.82
2023-01-26T23:02:02.046Z,8.02
2023-01-26T23:05:02.968Z,8.98
2023-01-26T23:08:04.117Z,7.65
2023-01-26T23:11:10.748Z,8.40
2023-01-26T23:14:11.571Z,7.22
2023-01-26T23:17:12.635Z,8.15
2023-01-26T23:20:13.891Z,8.32
2023-01-26T23:23:15.979Z,9.52
2023-01-26T23:26:17.167Z,7.78
2023-01-26T23:29:17.935Z,7.43
2023-01-26T23:32:18.801Z,8.07
2023-01-26T23:35:19.684Z,7.22
2023-01-26T23:38:23.037Z,6.80
2023-01-26T23:41:23.823Z,8.00
2023-01-26T23:44:24.527Z,8.50
2023-01-26T23:47:25.499Z,7.75
2023-01-26T23:50:27.008Z,9.13
2023-01-26T23:53:30.895Z,8.68
2023-01-26T23:56:31.723Z,8.57
2023-01-26T23:59:32.781Z,8.27
